sensor_id;sensor_type;location;lat;lon;timestamp;P1;durP1;ratioP1;P2;durP2;ratioP2
19836;SDS011;10079;55.740;37.662;2022-09-13T00:00:43;7.00;;;4.97;;
19836;SDS011;10079;55.740;37.662;2022-09-13T00:03:28;8.13;;;5.20;;
19836;SDS011;10079;55.740;37.662;2022-09-13T00:06:14;8.13;;;5.53;;
19836;SDS011;10079;55.740;37.662;2022-09-13T00:08:58;5.93;;;5.13;;
19836;SDS011;10079;55.740;37.662;2022-09-13T00:11:42;6.40;;;4.97;;
19836;SDS011;10079;55.740;37.662;2022-09-13T00:14:23;8.57;;;5.00;;
19836;SDS011;10079;55.740;37.662;2022-09-13T00:17:04;6.53;;;4.87;;
19836;SDS011;10079;55.740;37.662;2022-09-13T00:19:45;6.93;;;4.97;;
19836;SDS011;10079;55.740;37.662;2022-09-13T00:22:29;6.97;;;5.37;;
19836;SDS011;10079;55.740;37.662;2022-09-13T00:25:10;7.03;;;5.23;;
19836;SDS011;10079;55.740;37.662;2022-09-13T00:27:50;6.43;;;4.93;;
19836;SDS011;10079;55.740;37.662;2022-09-13T00:30:31;7.90;;;5.17;;
19836;SDS011;10079;55.740;37.662;2022-09-13T00:33:12;6.40;;;5.03;;
19836;SDS011;10079;55.740;37.662;2022-09-13T00:35:53;6.87;;;4.83;;
19836;SDS011;10079;55.740;37.662;2022-09-13T00:38:37;8.20;;;5.67;;
19836;SDS011;10079;55.740;37.662;2022-09-13T00:41:18;6.90;;;4.50;;
19836;SDS011;10079;55.740;37.662;2022-09-13T00:44:02;6.77;;;4.70;;
19836;SDS011;10079;55.740;37.662;2022-09-13T00:46:47;6.57;;;5.13;;
19836;SDS011;10079;55.740;37.662;2022-09-13T00:49:35;8.60;;;6.00;;
19836;SDS011;10079;55.740;37.662;2022-09-13T00:52:17;9.83;;;5.40;;
19836;SDS011;10079;55.740;37.662;2022-09-13T00:54:59;8.00;;;5.03;;
19836;SDS011;10079;55.740;37.662;2022-09-13T00:57:40;10.10;;;5.07;;
19836;SDS011;10079;55.740;37.662;2022-09-13T01:00:20;7.03;;;5.27;;
19836;SDS011;10079;55.740;37.662;2022-09-13T01:03:12;7.80;;;5.33;;
19836;SDS011;10079;55.740;37.662;2022-09-13T01:05:55;7.40;;;5.67;;
19836;SDS011;10079;55.740;37.662;2022-09-13T01:08:41;7.43;;;5.67;;
19836;SDS011;10079;55.740;37.662;2022-09-13T01:11:33;7.77;;;5.47;;
19836;SDS011;10079;55.740;37.662;2022-09-13T01:14:06;10.30;;;5.90;;
19836;SDS011;10079;55.740;37.662;2022-09-13T01:16:47;11.13;;;5.50;;
19836;SDS011;10079;55.740;37.662;2022-09-13T01:19:28;7.47;;;5.20;;
19836;SDS011;10079;55.740;37.662;2022-09-13T01:22:35;8.20;;;5.40;;
19836;SDS011;10079;55.740;37.662;2022-09-13T01:25:42;10.53;;;5.70;;
19836;SDS011;10079;55.740;37.662;2022-09-13T01:39:26;8.70;;;5.97;;
19836;SDS011;10079;55.740;37.662;2022-09-13T01:42:14;9.33;;;6.30;;
19836;SDS011;10079;55.740;37.662;2022-09-13T01:45:02;7.93;;;6.20;;
19836;SDS011;10079;55.740;37.662;2022-09-13T01:48:01;9.73;;;5.53;;
19836;SDS011;10079;55.740;37.662;2022-09-13T01:51:00;9.37;;;5.80;;
19836;SDS011;10079;55.740;37.662;2022-09-13T01:53:49;9.50;;;5.57;;
19836;SDS011;10079;55.740;37.662;2022-09-13T01:56:32;8.60;;;5.90;;
19836;SDS011;10079;55.740;37.662;2022-09-13T01:59:23;7.17;;;5.40;;
19836;SDS011;10079;55.740;37.662;2022-09-13T02:02:04;7.37;;;5.43;;
19836;SDS011;10079;55.740;37.662;2022-09-13T02:04:52;9.33;;;5.90;;
19836;SDS011;10079;55.740;37.662;2022-09-13T02:07:49;9.30;;;6.23;;
19836;SDS011;10079;55.740;37.662;2022-09-13T02:13:27;9.07;;;5.50;;
19836;SDS011;10079;55.740;37.662;2022-09-13T02:16:13;9.47;;;5.90;;
19836;SDS011;10079;55.740;37.662;2022-09-13T02:19:06;10.03;;;6.13;;
19836;SDS011;10079;55.740;37.662;2022-09-13T02:21:56;10.63;;;6.80;;
19836;SDS011;10079;55.740;37.662;2022-09-13T02:24:41;10.10;;;6.10;;
19836;SDS011;10079;55.740;37.662;2022-09-13T02:27:25;9.60;;;6.23;;
19836;SDS011;10079;55.740;37.662;2022-09-13T02:30:07;13.03;;;6.37;;
19836;SDS011;10079;55.740;37.662;2022-09-13T02:32:51;8.53;;;6.30;;
19836;SDS011;10079;55.740;37.662;2022-09-13T02:35:37;8.70;;;6.87;;
19836;SDS011;10079;55.740;37.662;2022-09-13T02:38:19;9.07;;;6.57;;
19836;SDS011;10079;55.740;37.662;2022-09-13T02:41:09;10.60;;;6.33;;
19836;SDS011;10079;55.740;37.662;2022-09-13T02:43:56;9.57;;;6.83;;
19836;SDS011;10079;55.740;37.662;2022-09-13T02:46:42;9.90;;;6.43;;
19836;SDS011;10079;55.740;37.662;2022-09-13T02:59:59;9.83;;;6.70;;
19836;SDS011;10079;55.740;37.662;2022-09-13T03:02:44;9.33;;;6.33;;
19836;SDS011;10079;55.740;37.662;2022-09-13T03:05:24;8.20;;;6.27;;
19836;SDS011;10079;55.740;37.662;2022-09-13T03:08:09;9.37;;;5.93;;
19836;SDS011;10079;55.740;37.662;2022-09-13T03:10:57;8.77;;;6.50;;
19836;SDS011;10079;55.740;37.662;2022-09-13T03:16:47;9.63;;;6.13;;
19836;SDS011;10079;55.740;37.662;2022-09-13T03:20:07;8.83;;;6.40;;
19836;SDS011;10079;55.740;37.662;2022-09-13T03:22:57;9.00;;;6.10;;
19836;SDS011;10079;55.740;37.662;2022-09-13T03:25:41;6.90;;;5.30;;
19836;SDS011;10079;55.740;37.662;2022-09-13T03:28:32;8.43;;;6.23;;
19836;SDS011;10079;55.740;37.662;2022-09-13T03:31:32;7.50;;;5.80;;
19836;SDS011;10079;55.740;37.662;2022-09-13T03:34:17;8.73;;;5.87;;
19836;SDS011;10079;55.740;37.662;2022-09-13T03:37:19;8.80;;;6.37;;
19836;SDS011;10079;55.740;37.662;2022-09-13T03:39:58;9.30;;;6.23;;
19836;SDS011;10079;55.740;37.662;2022-09-13T03:42:42;9.27;;;6.10;;
19836;SDS011;10079;55.740;37.662;2022-09-13T03:45:27;7.80;;;6.03;;
19836;SDS011;10079;55.740;37.662;2022-09-13T03:48:07;11.27;;;6.03;;
19836;SDS011;10079;55.740;37.662;2022-09-13T03:50:48;10.37;;;6.10;;
19836;SDS011;10079;55.740;37.662;2022-09-13T03:53:29;10.87;;;6.00;;
19836;SDS011;10079;55.740;37.662;2022-09-13T03:56:11;10.50;;;6.20;;
19836;SDS011;10079;55.740;37.662;2022-09-13T03:58:53;8.90;;;5.83;;
19836;SDS011;10079;55.740;37.662;2022-09-13T04:01:34;8.43;;;6.60;;
19836;SDS011;10079;55.740;37.662;2022-09-13T04:04:23;9.10;;;6.10;;
19836;SDS011;10079;55.740;37.662;2022-09-13T04:07:04;9.10;;;6.30;;
19836;SDS011;10079;55.740;37.662;2022-09-13T04:09:48;10.23;;;6.13;;
19836;SDS011;10079;55.740;37.662;2022-09-13T04:12:37;9.63;;;5.70;;
19836;SDS011;10079;55.740;37.662;2022-09-13T04:15:18;10.87;;;6.07;;
19836;SDS011;10079;55.740;37.662;2022-09-13T04:17:59;7.73;;;6.10;;
19836;SDS011;10079;55.740;37.662;2022-09-13T04:20:39;9.63;;;6.83;;
19836;SDS011;10079;55.740;37.662;2022-09-13T04:44:31;10.27;;;7.27;;
19836;SDS011;10079;55.740;37.662;2022-09-13T04:47:16;10.00;;;7.10;;
19836;SDS011;10079;55.740;37.662;2022-09-13T04:50:10;9.33;;;7.00;;
19836;SDS011;10079;55.740;37.662;2022-09-13T04:52:54;14.33;;;7.53;;
19836;SDS011;10079;55.740;37.662;2022-09-13T04:55:44;11.07;;;7.50;;
19836;SDS011;10079;55.740;37.662;2022-09-13T04:58:28;12.90;;;7.20;;
19836;SDS011;10079;55.740;37.662;2022-09-13T05:11:39;12.17;;;5.73;;
19836;SDS011;10079;55.740;37.662;2022-09-13T05:14:24;10.73;;;6.83;;
19836;SDS011;10079;55.740;37.662;2022-09-13T05:17:08;10.23;;;7.10;;
19836;SDS011;10079;55.740;37.662;2022-09-13T05:19:57;11.03;;;7.07;;
19836;SDS011;10079;55.740;37.662;2022-09-13T05:22:46;10.30;;;6.97;;
19836;SDS011;10079;55.740;37.662;2022-09-13T05:25:29;11.33;;;7.37;;
19836;SDS011;10079;55.740;37.662;2022-09-13T05:28:10;11.57;;;7.53;;
19836;SDS011;10079;55.740;37.662;2022-09-13T05:30:54;8.73;;;6.90;;
19836;SDS011;10079;55.740;37.662;2022-09-13T05:33:34;10.03;;;6.93;;
19836;SDS011;10079;55.740;37.662;2022-09-13T05:36:18;10.50;;;6.83;;
19836;SDS011;10079;55.740;37.662;2022-09-13T05:39:03;11.00;;;6.80;;
19836;SDS011;10079;55.740;37.662;2022-09-13T05:41:44;10.53;;;7.00;;
19836;SDS011;10079;55.740;37.662;2022-09-13T05:44:25;13.00;;;6.90;;
19836;SDS011;10079;55.740;37.662;2022-09-13T05:47:06;12.43;;;6.77;;
19836;SDS011;10079;55.740;37.662;2022-09-13T05:49:47;10.97;;;7.40;;
19836;SDS011;10079;55.740;37.662;2022-09-13T05:52:28;9.40;;;6.47;;
19836;SDS011;10079;55.740;37.662;2022-09-13T05:55:12;11.50;;;6.97;;
19836;SDS011;10079;55.740;37.662;2022-09-13T05:57:53;11.17;;;6.50;;
19836;SDS011;10079;55.740;37.662;2022-09-13T06:00:34;12.40;;;7.43;;
19836;SDS011;10079;55.740;37.662;2022-09-13T06:03:15;11.30;;;7.00;;
19836;SDS011;10079;55.740;37.662;2022-09-13T06:05:57;9.50;;;6.47;;
19836;SDS011;10079;55.740;37.662;2022-09-13T06:08:40;12.60;;;7.97;;
19836;SDS011;10079;55.740;37.662;2022-09-13T06:11:25;11.33;;;6.93;;
19836;SDS011;10079;55.740;37.662;2022-09-13T06:14:06;12.63;;;7.17;;
19836;SDS011;10079;55.740;37.662;2022-09-13T06:16:50;9.40;;;6.70;;
19836;SDS011;10079;55.740;37.662;2022-09-13T06:19:31;12.63;;;6.87;;
19836;SDS011;10079;55.740;37.662;2022-09-13T06:22:12;9.80;;;6.57;;
19836;SDS011;10079;55.740;37.662;2022-09-13T06:24:53;15.13;;;6.83;;
19836;SDS011;10079;55.740;37.662;2022-09-13T06:27:34;12.97;;;6.97;;
19836;SDS011;10079;55.740;37.662;2022-09-13T06:30:15;12.63;;;6.67;;
19836;SDS011;10079;55.740;37.662;2022-09-13T06:32:56;14.50;;;8.00;;
19836;SDS011;10079;55.740;37.662;2022-09-13T06:35:40;13.07;;;7.00;;
19836;SDS011;10079;55.740;37.662;2022-09-13T06:38:21;12.37;;;7.27;;
19836;SDS011;10079;55.740;37.662;2022-09-13T06:41:03;12.87;;;6.87;;
19836;SDS011;10079;55.740;37.662;2022-09-13T06:43:43;12.47;;;7.47;;
19836;SDS011;10079;55.740;37.662;2022-09-13T06:46:26;9.33;;;6.70;;
19836;SDS011;10079;55.740;37.662;2022-09-13T06:49:10;16.13;;;8.13;;
19836;SDS011;10079;55.740;37.662;2022-09-13T06:51:51;10.57;;;7.43;;
19836;SDS011;10079;55.740;37.662;2022-09-13T07:05:15;10.43;;;6.97;;
19836;SDS011;10079;55.740;37.662;2022-09-13T07:08:05;11.90;;;7.40;;
19836;SDS011;10079;55.740;37.662;2022-09-13T07:10:49;10.90;;;6.77;;
19836;SDS011;10079;55.740;37.662;2022-09-13T07:13:33;10.27;;;7.20;;
19836;SDS011;10079;55.740;37.662;2022-09-13T07:16:18;10.30;;;6.53;;
19836;SDS011;10079;55.740;37.662;2022-09-13T07:19:13;12.60;;;7.17;;
19836;SDS011;10079;55.740;37.662;2022-09-13T07:21:58;9.90;;;7.20;;
19836;SDS011;10079;55.740;37.662;2022-09-13T07:24:51;6.57;;;5.43;;
19836;SDS011;10079;55.740;37.662;2022-09-13T07:27:35;9.67;;;5.80;;
19836;SDS011;10079;55.740;37.662;2022-09-13T07:30:24;12.60;;;6.33;;
19836;SDS011;10079;55.740;37.662;2022-09-13T07:33:17;11.10;;;5.67;;
19836;SDS011;10079;55.740;37.662;2022-09-13T07:35:58;9.87;;;6.10;;
19836;SDS011;10079;55.740;37.662;2022-09-13T07:38:42;8.83;;;5.53;;
19836;SDS011;10079;55.740;37.662;2022-09-13T07:41:26;8.83;;;5.70;;
19836;SDS011;10079;55.740;37.662;2022-09-13T07:44:10;8.10;;;6.33;;
19836;SDS011;10079;55.740;37.662;2022-09-13T07:46:51;10.80;;;5.70;;
19836;SDS011;10079;55.740;37.662;2022-09-13T07:49:34;9.20;;;5.67;;
19836;SDS011;10079;55.740;37.662;2022-09-13T07:52:15;8.00;;;5.57;;
19836;SDS011;10079;55.740;37.662;2022-09-13T07:54:59;8.73;;;5.57;;
19836;SDS011;10079;55.740;37.662;2022-09-13T07:57:43;9.10;;;5.90;;
19836;SDS011;10079;55.740;37.662;2022-09-13T08:00:33;7.77;;;5.07;;
19836;SDS011;10079;55.740;37.662;2022-09-13T08:03:14;8.87;;;5.57;;
19836;SDS011;10079;55.740;37.662;2022-09-13T08:05:58;11.67;;;5.30;;
19836;SDS011;10079;55.740;37.662;2022-09-13T08:08:39;8.00;;;5.47;;
19836;SDS011;10079;55.740;37.662;2022-09-13T08:11:21;8.03;;;5.83;;
19836;SDS011;10079;55.740;37.662;2022-09-13T08:14:05;6.07;;;4.90;;
19836;SDS011;10079;55.740;37.662;2022-09-13T08:16:48;9.23;;;5.30;;
19836;SDS011;10079;55.740;37.662;2022-09-13T08:19:32;7.70;;;4.90;;
19836;SDS011;10079;55.740;37.662;2022-09-13T08:22:17;11.50;;;5.07;;
19836;SDS011;10079;55.740;37.662;2022-09-13T08:24:58;8.40;;;4.90;;
19836;SDS011;10079;55.740;37.662;2022-09-13T08:27:39;6.93;;;5.80;;
19836;SDS011;10079;55.740;37.662;2022-09-13T08:30:23;6.30;;;4.20;;
19836;SDS011;10079;55.740;37.662;2022-09-13T08:33:08;7.40;;;4.17;;
19836;SDS011;10079;55.740;37.662;2022-09-13T08:35:49;6.67;;;4.33;;
19836;SDS011;10079;55.740;37.662;2022-09-13T08:38:34;7.70;;;5.33;;
19836;SDS011;10079;55.740;37.662;2022-09-13T08:41:30;5.23;;;4.47;;
19836;SDS011;10079;55.740;37.662;2022-09-13T08:50:09;5.63;;;3.90;;
19836;SDS011;10079;55.740;37.662;2022-09-13T08:52:50;6.67;;;4.00;;
19836;SDS011;10079;55.740;37.662;2022-09-13T08:55:35;4.27;;;3.87;;
19836;SDS011;10079;55.740;37.662;2022-09-13T08:58:27;5.17;;;3.70;;
19836;SDS011;10079;55.740;37.662;2022-09-13T09:01:19;7.80;;;4.13;;
19836;SDS011;10079;55.740;37.662;2022-09-13T09:04:09;6.57;;;3.80;;
19836;SDS011;10079;55.740;37.662;2022-09-13T09:06:47;9.37;;;3.90;;
19836;SDS011;10079;55.740;37.662;2022-09-13T09:09:29;4.97;;;3.43;;
19836;SDS011;10079;55.740;37.662;2022-09-13T09:12:14;3.07;;;2.10;;
19836;SDS011;10079;55.740;37.662;2022-09-13T09:14:57;2.60;;;2.40;;
19836;SDS011;10079;55.740;37.662;2022-09-13T09:20:46;4.00;;;2.50;;
19836;SDS011;10079;55.740;37.662;2022-09-13T09:23:38;3.07;;;2.20;;
19836;SDS011;10079;55.740;37.662;2022-09-13T09:26:22;8.80;;;2.60;;
19836;SDS011;10079;55.740;37.662;2022-09-13T09:29:15;5.13;;;3.13;;
19836;SDS011;10079;55.740;37.662;2022-09-13T09:42:54;3.00;;;2.33;;
19836;SDS011;10079;55.740;37.662;2022-09-13T09:45:36;2.53;;;2.30;;
19836;SDS011;10079;55.740;37.662;2022-09-13T10:09:57;3.93;;;2.60;;
19836;SDS011;10079;55.740;37.662;2022-09-13T10:12:42;2.63;;;2.20;;
19836;SDS011;10079;55.740;37.662;2022-09-13T10:15:35;3.83;;;2.40;;
19836;SDS011;10079;55.740;37.662;2022-09-13T10:18:20;3.17;;;2.20;;
19836;SDS011;10079;55.740;37.662;2022-09-13T10:21:24;4.73;;;1.60;;
19836;SDS011;10079;55.740;37.662;2022-09-13T10:24:15;2.37;;;1.83;;
19836;SDS011;10079;55.740;37.662;2022-09-13T10:26:59;3.97;;;1.90;;
19836;SDS011;10079;55.740;37.662;2022-09-13T10:29:46;2.27;;;1.97;;
19836;SDS011;10079;55.740;37.662;2022-09-13T10:32:36;3.00;;;2.00;;
19836;SDS011;10079;55.740;37.662;2022-09-13T10:35:22;3.83;;;2.10;;
19836;SDS011;10079;55.740;37.662;2022-09-13T10:38:03;1.83;;;1.60;;
19836;SDS011;10079;55.740;37.662;2022-09-13T10:40:46;3.47;;;1.80;;
19836;SDS011;10079;55.740;37.662;2022-09-13T10:43:38;4.90;;;2.00;;
19836;SDS011;10079;55.740;37.662;2022-09-13T10:46:20;2.10;;;1.60;;
19836;SDS011;10079;55.740;37.662;2022-09-13T10:49:01;2.07;;;1.83;;
19836;SDS011;10079;55.740;37.662;2022-09-13T10:51:50;4.93;;;2.27;;
19836;SDS011;10079;55.740;37.662;2022-09-13T11:05:23;4.67;;;2.10;;
19836;SDS011;10079;55.740;37.662;2022-09-13T11:08:25;4.50;;;1.87;;
19836;SDS011;10079;55.740;37.662;2022-09-13T11:11:18;2.90;;;1.93;;
19836;SDS011;10079;55.740;37.662;2022-09-13T11:17:06;2.57;;;2.13;;
19836;SDS011;10079;55.740;37.662;2022-09-13T11:19:55;5.20;;;2.43;;
19836;SDS011;10079;55.740;37.662;2022-09-13T11:22:49;3.50;;;1.90;;
19836;SDS011;10079;55.740;37.662;2022-09-13T11:25:30;4.40;;;2.23;;
19836;SDS011;10079;55.740;37.662;2022-09-13T11:28:40;6.47;;;2.10;;
19836;SDS011;10079;55.740;37.662;2022-09-13T11:34:13;4.47;;;2.20;;
19836;SDS011;10079;55.740;37.662;2022-09-13T11:37:10;3.03;;;1.70;;
19836;SDS011;10079;55.740;37.662;2022-09-13T11:40:00;3.83;;;1.70;;
19836;SDS011;10079;55.740;37.662;2022-09-13T11:42:44;3.40;;;1.80;;
19836;SDS011;10079;55.740;37.662;2022-09-13T11:45:27;5.13;;;1.70;;
19836;SDS011;10079;55.740;37.662;2022-09-13T11:48:12;1.67;;;1.57;;
19836;SDS011;10079;55.740;37.662;2022-09-13T11:51:21;3.55;;;2.00;;
19836;SDS011;10079;55.740;37.662;2022-09-13T11:54:04;3.05;;;2.10;;
19836;SDS011;10079;55.740;37.662;2022-09-13T11:56:45;3.83;;;2.17;;
19836;SDS011;10079;55.740;37.662;2022-09-13T12:02:39;7.10;;;2.10;;
19836;SDS011;10079;55.740;37.662;2022-09-13T12:05:18;4.12;;;1.90;;
19836;SDS011;10079;55.740;37.662;2022-09-13T12:08:10;4.03;;;2.30;;
19836;SDS011;10079;55.740;37.662;2022-09-13T12:10:56;3.23;;;1.90;;
19836;SDS011;10079;55.740;37.662;2022-09-13T12:13:49;4.50;;;2.00;;
19836;SDS011;10079;55.740;37.662;2022-09-13T12:16:31;2.53;;;1.97;;
19836;SDS011;10079;55.740;37.662;2022-09-13T12:32:58;3.47;;;2.30;;
19836;SDS011;10079;55.740;37.662;2022-09-13T12:35:48;3.92;;;2.28;;
19836;SDS011;10079;55.740;37.662;2022-09-13T12:58:19;7.00;;;2.13;;
19836;SDS011;10079;55.740;37.662;2022-09-13T13:01:14;3.17;;;1.90;;
19836;SDS011;10079;55.740;37.662;2022-09-13T13:03:58;5.63;;;2.00;;
19836;SDS011;10079;55.740;37.662;2022-09-13T13:06:54;2.80;;;1.70;;
19836;SDS011;10079;55.740;37.662;2022-09-13T13:09:44;1.87;;;1.53;;
19836;SDS011;10079;55.740;37.662;2022-09-13T13:12:30;3.90;;;2.00;;
19836;SDS011;10079;55.740;37.662;2022-09-13T13:15:52;2.07;;;1.50;;
19836;SDS011;10079;55.740;37.662;2022-09-13T13:27:31;3.27;;;2.10;;
19836;SDS011;10079;55.740;37.662;2022-09-13T13:33:19;2.60;;;2.10;;
19836;SDS011;10079;55.740;37.662;2022-09-13T13:42:26;2.60;;;2.07;;
19836;SDS011;10079;55.740;37.662;2022-09-13T13:45:22;3.80;;;2.17;;
19836;SDS011;10079;55.740;37.662;2022-09-13T13:48:06;3.97;;;2.00;;
19836;SDS011;10079;55.740;37.662;2022-09-13T13:53:54;3.57;;;2.47;;
19836;SDS011;10079;55.740;37.662;2022-09-13T14:07:14;5.13;;;2.07;;
19836;SDS011;10079;55.740;37.662;2022-09-13T14:18:49;7.07;;;2.13;;
19836;SDS011;10079;55.740;37.662;2022-09-13T14:21:30;2.90;;;2.13;;
19836;SDS011;10079;55.740;37.662;2022-09-13T14:27:12;3.47;;;2.23;;
19836;SDS011;10079;55.740;37.662;2022-09-13T14:29:55;5.73;;;2.33;;
19836;SDS011;10079;55.740;37.662;2022-09-13T14:32:41;4.47;;;2.30;;
19836;SDS011;10079;55.740;37.662;2022-09-13T14:35:28;3.87;;;2.73;;
19836;SDS011;10079;55.740;37.662;2022-09-13T14:38:19;3.03;;;2.27;;
19836;SDS011;10079;55.740;37.662;2022-09-13T14:41:02;5.53;;;2.20;;
19836;SDS011;10079;55.740;37.662;2022-09-13T14:44:12;5.80;;;2.20;;
19836;SDS011;10079;55.740;37.662;2022-09-13T14:46:42;5.40;;;2.40;;
19836;SDS011;10079;55.740;37.662;2022-09-13T14:59:58;6.23;;;2.63;;
19836;SDS011;10079;55.740;37.662;2022-09-13T15:02:38;3.73;;;2.27;;
19836;SDS011;10079;55.740;37.662;2022-09-13T15:15:52;3.43;;;2.73;;
19836;SDS011;10079;55.740;37.662;2022-09-13T15:18:36;2.93;;;2.30;;
19836;SDS011;10079;55.740;37.662;2022-09-13T15:21:28;3.40;;;2.47;;
19836;SDS011;10079;55.740;37.662;2022-09-13T15:24:34;4.43;;;2.77;;
19836;SDS011;10079;55.740;37.662;2022-09-13T15:27:43;4.27;;;2.57;;
19836;SDS011;10079;55.740;37.662;2022-09-13T15:41:30;5.03;;;2.67;;
19836;SDS011;10079;55.740;37.662;2022-09-13T15:44:35;3.90;;;2.13;;
19836;SDS011;10079;55.740;37.662;2022-09-13T15:47:38;4.20;;;2.63;;
19836;SDS011;10079;55.740;37.662;2022-09-13T15:51:22;5.07;;;2.83;;
19836;SDS011;10079;55.740;37.662;2022-09-13T15:54:19;6.20;;;2.63;;
19836;SDS011;10079;55.740;37.662;2022-09-13T15:57:37;4.40;;;2.50;;
19836;SDS011;10079;55.740;37.662;2022-09-13T16:00:45;4.77;;;2.67;;
19836;SDS011;10079;55.740;37.662;2022-09-13T16:03:50;6.53;;;3.30;;
19836;SDS011;10079;55.740;37.662;2022-09-13T16:06:57;3.17;;;2.33;;
19836;SDS011;10079;55.740;37.662;2022-09-13T16:10:05;5.43;;;2.40;;
19836;SDS011;10079;55.740;37.662;2022-09-13T16:13:14;3.10;;;2.47;;
19836;SDS011;10079;55.740;37.662;2022-09-13T16:16:19;4.10;;;2.70;;
19836;SDS011;10079;55.740;37.662;2022-09-13T16:19:26;5.40;;;2.70;;
19836;SDS011;10079;55.740;37.662;2022-09-13T16:22:29;5.53;;;2.73;;
19836;SDS011;10079;55.740;37.662;2022-09-13T16:54:25;6.63;;;3.40;;
19836;SDS011;10079;55.740;37.662;2022-09-13T16:57:33;4.10;;;3.17;;
19836;SDS011;10079;55.740;37.662;2022-09-13T17:00:39;6.00;;;3.20;;
19836;SDS011;10079;55.740;37.662;2022-09-13T17:03:47;6.70;;;3.57;;
19836;SDS011;10079;55.740;37.662;2022-09-13T17:06:51;4.40;;;3.33;;
19836;SDS011;10079;55.740;37.662;2022-09-13T17:09:55;5.47;;;3.67;;
19836;SDS011;10079;55.740;37.662;2022-09-13T17:13:01;6.63;;;3.70;;
19836;SDS011;10079;55.740;37.662;2022-09-13T17:16:22;5.30;;;3.57;;
19836;SDS011;10079;55.740;37.662;2022-09-13T17:19:32;5.97;;;3.67;;
19836;SDS011;10079;55.740;37.662;2022-09-13T17:22:45;6.37;;;3.30;;
19836;SDS011;10079;55.740;37.662;2022-09-13T17:25:49;5.30;;;3.63;;
19836;SDS011;10079;55.740;37.662;2022-09-13T17:28:53;4.00;;;3.10;;
19836;SDS011;10079;55.740;37.662;2022-09-13T17:31:57;5.13;;;3.67;;
19836;SDS011;10079;55.740;37.662;2022-09-13T17:35:03;4.37;;;3.17;;
19836;SDS011;10079;55.740;37.662;2022-09-13T17:38:09;5.00;;;4.00;;
19836;SDS011;10079;55.740;37.662;2022-09-13T17:41:16;6.47;;;3.70;;
19836;SDS011;10079;55.740;37.662;2022-09-13T17:44:22;5.20;;;3.53;;
19836;SDS011;10079;55.740;37.662;2022-09-13T17:47:27;5.03;;;3.70;;
19836;SDS011;10079;55.740;37.662;2022-09-13T17:50:32;4.93;;;3.57;;
19836;SDS011;10079;55.740;37.662;2022-09-13T17:53:39;4.97;;;3.40;;
19836;SDS011;10079;55.740;37.662;2022-09-13T17:56:42;4.50;;;3.80;;
19836;SDS011;10079;55.740;37.662;2022-09-13T17:59:48;6.63;;;3.70;;
19836;SDS011;10079;55.740;37.662;2022-09-13T18:02:52;5.43;;;3.70;;
19836;SDS011;10079;55.740;37.662;2022-09-13T18:05:55;4.93;;;3.40;;
19836;SDS011;10079;55.740;37.662;2022-09-13T18:09:01;6.83;;;4.03;;
19836;SDS011;10079;55.740;37.662;2022-09-13T18:12:07;4.90;;;3.83;;
19836;SDS011;10079;55.740;37.662;2022-09-13T18:15:11;4.20;;;3.40;;
19836;SDS011;10079;55.740;37.662;2022-09-13T18:18:17;5.37;;;3.90;;
19836;SDS011;10079;55.740;37.662;2022-09-13T18:21:21;6.17;;;4.23;;
19836;SDS011;10079;55.740;37.662;2022-09-13T18:32:58;5.63;;;4.63;;
19836;SDS011;10079;55.740;37.662;2022-09-13T18:35:55;5.47;;;3.93;;
19836;SDS011;10079;55.740;37.662;2022-09-13T18:59:52;6.17;;;4.50;;
19836;SDS011;10079;55.740;37.662;2022-09-13T19:02:32;5.07;;;4.03;;
19836;SDS011;10079;55.740;37.662;2022-09-13T19:05:15;7.37;;;4.00;;
19836;SDS011;10079;55.740;37.662;2022-09-13T19:07:58;5.17;;;4.63;;
19836;SDS011;10079;55.740;37.662;2022-09-13T19:10:47;5.80;;;4.17;;
19836;SDS011;10079;55.740;37.662;2022-09-13T19:13:46;5.03;;;4.10;;
19836;SDS011;10079;55.740;37.662;2022-09-13T19:16:39;4.37;;;3.97;;
19836;SDS011;10079;55.740;37.662;2022-09-13T19:19:33;4.73;;;4.30;;
19836;SDS011;10079;55.740;37.662;2022-09-13T19:33:05;4.60;;;4.10;;
19836;SDS011;10079;55.740;37.662;2022-09-13T19:35:49;4.97;;;4.10;;
19836;SDS011;10079;55.740;37.662;2022-09-13T19:38:41;4.87;;;4.37;;
19836;SDS011;10079;55.740;37.662;2022-09-13T19:41:23;5.70;;;4.17;;
19836;SDS011;10079;55.740;37.662;2022-09-13T19:44:07;5.07;;;4.57;;
19836;SDS011;10079;55.740;37.662;2022-09-13T19:46:51;6.73;;;5.47;;
19836;SDS011;10079;55.740;37.662;2022-09-13T19:49:32;7.17;;;5.60;;
19836;SDS011;10079;55.740;37.662;2022-09-13T19:52:17;6.13;;;5.20;;
19836;SDS011;10079;55.740;37.662;2022-09-13T19:55:07;6.57;;;4.40;;
19836;SDS011;10079;55.740;37.662;2022-09-13T19:57:52;6.33;;;4.47;;
19836;SDS011;10079;55.740;37.662;2022-09-13T20:00:45;6.47;;;4.50;;
19836;SDS011;10079;55.740;37.662;2022-09-13T20:03:29;6.60;;;5.00;;
19836;SDS011;10079;55.740;37.662;2022-09-13T20:06:15;6.67;;;4.63;;
19836;SDS011;10079;55.740;37.662;2022-09-13T20:09:05;5.23;;;4.13;;
19836;SDS011;10079;55.740;37.662;2022-09-13T20:11:49;5.30;;;4.17;;
19836;SDS011;10079;55.740;37.662;2022-09-13T20:14:33;5.20;;;4.07;;
19836;SDS011;10079;55.740;37.662;2022-09-13T20:17:17;4.40;;;4.00;;
19836;SDS011;10079;55.740;37.662;2022-09-13T20:19:58;7.13;;;4.40;;
19836;SDS011;10079;55.740;37.662;2022-09-13T20:22:38;5.97;;;4.37;;
19836;SDS011;10079;55.740;37.662;2022-09-13T20:25:20;5.50;;;4.43;;
19836;SDS011;10079;55.740;37.662;2022-09-13T20:28:02;5.10;;;4.20;;
19836;SDS011;10079;55.740;37.662;2022-09-13T20:30:52;5.80;;;4.00;;
19836;SDS011;10079;55.740;37.662;2022-09-13T20:33:36;7.03;;;3.90;;
19836;SDS011;10079;55.740;37.662;2022-09-13T20:36:33;4.03;;;3.63;;
19836;SDS011;10079;55.740;37.662;2022-09-13T20:39:13;5.43;;;4.30;;
19836;SDS011;10079;55.740;37.662;2022-09-13T20:41:58;4.70;;;4.27;;
19836;SDS011;10079;55.740;37.662;2022-09-13T20:44:40;4.87;;;3.83;;
19836;SDS011;10079;55.740;37.662;2022-09-13T20:47:22;4.80;;;4.03;;
19836;SDS011;10079;55.740;37.662;2022-09-13T20:50:06;5.13;;;4.10;;
19836;SDS011;10079;55.740;37.662;2022-09-13T20:52:55;5.10;;;4.17;;
19836;SDS011;10079;55.740;37.662;2022-09-13T20:55:39;5.73;;;4.03;;
19836;SDS011;10079;55.740;37.662;2022-09-13T20:58:24;4.97;;;4.23;;
19836;SDS011;10079;55.740;37.662;2022-09-13T21:01:17;6.13;;;4.60;;
19836;SDS011;10079;55.740;37.662;2022-09-13T21:03:58;5.07;;;4.57;;
19836;SDS011;10079;55.740;37.662;2022-09-13T21:06:39;6.20;;;4.47;;
19836;SDS011;10079;55.740;37.662;2022-09-13T21:09:19;5.47;;;4.73;;
19836;SDS011;10079;55.740;37.662;2022-09-13T21:12:01;5.00;;;4.47;;
19836;SDS011;10079;55.740;37.662;2022-09-13T21:14:50;5.47;;;4.27;;
19836;SDS011;10079;55.740;37.662;2022-09-13T21:17:34;6.03;;;4.73;;
19836;SDS011;10079;55.740;37.662;2022-09-13T21:20:27;5.30;;;4.80;;
19836;SDS011;10079;55.740;37.662;2022-09-13T21:23:11;6.03;;;4.70;;
19836;SDS011;10079;55.740;37.662;2022-09-13T21:25:55;5.80;;;4.57;;
19836;SDS011;10079;55.740;37.662;2022-09-13T21:28:37;4.93;;;4.53;;
19836;SDS011;10079;55.740;37.662;2022-09-13T21:31:22;6.47;;;5.10;;
19836;SDS011;10079;55.740;37.662;2022-09-13T21:34:04;6.80;;;4.60;;
19836;SDS011;10079;55.740;37.662;2022-09-13T21:36:44;5.53;;;4.90;;
19836;SDS011;10079;55.740;37.662;2022-09-13T21:39:25;6.00;;;4.60;;
19836;SDS011;10079;55.740;37.662;2022-09-13T21:42:09;5.70;;;4.30;;
19836;SDS011;10079;55.740;37.662;2022-09-13T21:44:50;5.00;;;4.23;;
19836;SDS011;10079;55.740;37.662;2022-09-13T21:47:31;4.97;;;4.27;;